createdAt,value
2023-03-19T00:00:26.991Z,98711.94
2023-03-19T00:05:19.377Z,98720.47
2023-03-19T00:10:11.726Z,98732.97
2023-03-19T00:15:03.976Z,98726.03
2023-03-19T00:19:56.223Z,98748.47
2023-03-19T00:24:48.622Z,98745.59
2023-03-19T00:29:40.474Z,98733.81
2023-03-19T00:34:32.163Z,98745.03
2023-03-19T00:39:24.932Z,98743.56
2023-03-19T00:44:30.333Z,98743.63
2023-03-19T00:49:22.480Z,98749.66
2023-03-19T00:54:14.224Z,98751.56
2023-03-19T00:59:06.894Z,98764.84
2023-03-19T01:03:59.201Z,98777.72
2023-03-19T01:08:50.918Z,98783.38
2023-03-19T01:13:42.893Z,98775.72
2023-03-19T01:18:34.960Z,98780.06
2023-03-19T01:23:26.835Z,98795.38
2023-03-19T01:28:19.627Z,98781.09
2023-03-19T01:33:11.349Z,98769.91
2023-03-19T01:38:03.052Z,98780.25
2023-03-19T01:43:17.514Z,98784.41
2023-03-19T01:48:37.139Z,98792.91
2023-03-19T01:53:32.773Z,98797.28
2023-03-19T01:58:25.966Z,98795.22
2023-03-19T02:03:17.859Z,98796.25
2023-03-19T02:08:13.008Z,98803.31
2023-03-19T02:13:04.834Z,98792.97
2023-03-19T02:17:56.819Z,98798.97
2023-03-19T02:23:21.761Z,98800.03
2023-03-19T02:28:16.995Z,98809.97
2023-03-19T02:33:16.257Z,98809.75
2023-03-19T02:38:08.008Z,98806.00
2023-03-19T02:42:59.815Z,98818.66
2023-03-19T02:47:51.542Z,98821.34
2023-03-19T02:52:43.188Z,98826.72
2023-03-19T02:57:34.779Z,98827.34
2023-03-19T03:02:26.532Z,98829.00
2023-03-19T03:07:18.255Z,98831.91
2023-03-19T03:12:10.050Z,98831.09
2023-03-19T03:17:02.112Z,98846.19
2023-03-19T03:21:53.952Z,98850.75
2023-03-19T03:26:45.759Z,98853.44
2023-03-19T03:31:37.510Z,98852.59
2023-03-19T03:36:29.334Z,98855.50
2023-03-19T03:41:21.049Z,98869.38
2023-03-19T03:46:13.815Z,98864.81
2023-03-19T03:51:05.654Z,98868.53
2023-03-19T03:55:57.375Z,98881.59
2023-03-19T04:00:49.307Z,98877.66
2023-03-19T04:05:41.046Z,98879.31
2023-03-19T04:10:35.780Z,98889.44
2023-03-19T04:15:27.506Z,98894.41
2023-03-19T04:20:19.279Z,98886.78
2023-03-19T04:25:11.705Z,98891.94
2023-03-19T04:30:04.415Z,98892.97
2023-03-19T04:34:56.340Z,98894.63
2023-03-19T04:39:47.959Z,98898.97
2023-03-19T04:44:39.579Z,98898.56
2023-03-19T04:49:31.525Z,98906.81
2023-03-19T04:54:23.873Z,98913.66
2023-03-19T04:59:15.436Z,98914.28
2023-03-19T05:04:08.414Z,98920.09
2023-03-19T05:09:00.874Z,98920.72
2023-03-19T05:13:52.584Z,98923.81
2023-03-19T05:18:44.728Z,98922.16
2023-03-19T05:23:36.348Z,98920.72
2023-03-19T05:28:28.144Z,98922.97
2023-03-19T05:33:19.870Z,98937.28
2023-03-19T05:38:11.950Z,98948.03
2023-03-19T05:43:03.796Z,98943.69
2023-03-19T05:47:55.420Z,98949.88
2023-03-19T05:52:47.057Z,98963.13
2023-03-19T05:57:38.676Z,98972.25
2023-03-19T06:02:30.386Z,98973.28
2023-03-19T06:07:21.984Z,98983.03
2023-03-19T06:12:13.715Z,98981.56
2023-03-19T06:17:05.642Z,98995.84
2023-03-19T06:21:57.271Z,98998.13
2023-03-19T06:26:48.944Z,98993.78
2023-03-19T06:31:41.819Z,98994.41
2023-03-19T06:36:34.771Z,99006.22
2023-03-19T06:41:26.582Z,99000.84
2023-03-19T06:46:18.258Z,99011.59
2023-03-19T06:51:09.900Z,99016.97
2023-03-19T06:56:01.530Z,99018.41
2023-03-19T07:00:53.928Z,99032.31
2023-03-19T07:05:45.695Z,99039.81
2023-03-19T07:10:38.402Z,99036.91
2023-03-19T07:15:30.139Z,99038.13
2023-03-19T07:20:21.815Z,99051.84
2023-03-19T07:25:13.474Z,99051.63
2023-03-19T07:30:05.481Z,99052.47
2023-03-19T07:34:57.160Z,99058.66
2023-03-19T07:39:48.744Z,99060.94
2023-03-19T07:44:40.728Z,99068.81
2023-03-19T07:49:33.634Z,99078.16
2023-03-19T07:54:25.549Z,99094.34
2023-03-19T07:59:17.119Z,99083.34
2023-03-19T08:04:08.813Z,99087.50
2023-03-19T08:09:00.891Z,99104.69
2023-03-19T08:13:52.539Z,99109.88
2023-03-19T08:18:44.143Z,99107.19
2023-03-19T08:23:35.801Z,99109.66
2023-03-19T08:28:27.465Z,99122.91
2023-03-19T08:33:19.129Z,99121.47
2023-03-19T08:38:11.258Z,99125.19
2023-03-19T08:43:04.069Z,99138.88
2023-03-19T08:47:58.009Z,99142.00
2023-03-19T08:52:49.864Z,99133.84
2023-03-19T08:57:41.592Z,99149.63
2023-03-19T09:02:33.298Z,99162.88
2023-03-19T09:07:25.114Z,99164.50
2023-03-19T09:12:17.858Z,99155.53
2023-03-19T09:17:10.439Z,99168.78
2023-03-19T09:22:02.078Z,99168.31
2023-03-19T09:26:53.743Z,99167.16
2023-03-19T09:31:45.592Z,99177.25
2023-03-19T09:36:38.021Z,99181.16
2023-03-19T09:42:03.986Z,99191.16
2023-03-19T09:47:26.154Z,99208.78
2023-03-19T09:52:59.977Z,99204.03
2023-03-19T09:57:55.401Z,99201.31
2023-03-19T10:02:51.150Z,99210.88
2023-03-19T10:08:11.432Z,99224.34
2023-03-19T10:13:21.582Z,99225.97
2023-03-19T10:18:19.921Z,99234.00
2023-03-19T10:23:37.930Z,99238.72
2023-03-19T10:28:30.532Z,99245.84
2023-03-19T10:33:32.357Z,99244.38
2023-03-19T10:38:26.521Z,99256.91
2023-03-19T10:43:23.903Z,99264.03
2023-03-19T10:48:17.363Z,99262.63
2023-03-19T10:53:14.966Z,99277.56
2023-03-19T10:58:16.804Z,99267.75
2023-03-19T11:03:30.179Z,99271.47
2023-03-19T11:08:34.911Z,99272.66
2023-03-19T11:13:27.747Z,99257.41
2023-03-19T11:18:22.546Z,99260.66
2023-03-19T11:23:16.669Z,99255.41
2023-03-19T11:28:19.795Z,99258.66
2023-03-19T11:33:23.654Z,99263.84
2023-03-19T11:38:45.687Z,99264.56
2023-03-19T11:43:51.052Z,99249.81
2023-03-19T11:48:57.853Z,99261.69
2023-03-19T11:54:07.877Z,99259.47
2023-03-19T11:59:27.861Z,99254.69
2023-03-19T12:04:22.295Z,99260.88
2023-03-19T12:09:34.716Z,99270.94
2023-03-19T12:14:42.421Z,99260.19
2023-03-19T12:20:01.124Z,99263.38
2023-03-19T12:24:55.360Z,99263.47
2023-03-19T12:30:09.381Z,99273.56
2023-03-19T12:35:21.023Z,99253.28
2023-03-19T12:40:21.643Z,99270.28
2023-03-19T12:45:33.792Z,99271.22
2023-03-19T12:50:27.422Z,99268.88
2023-03-19T12:55:19.167Z,99258.25
2023-03-19T13:00:20.411Z,99279.84
2023-03-19T13:05:26.865Z,99275.00
2023-03-19T13:10:21.310Z,99277.00
2023-03-19T13:15:35.818Z,99266.75
2023-03-19T13:20:39.421Z,99275.63
2023-03-19T13:25:59.211Z,99280.69
2023-03-19T13:31:06.343Z,99286.59
2023-03-19T13:36:14.721Z,99288.50
2023-03-19T13:41:26.512Z,99297.81
2023-03-19T13:46:18.225Z,99278.78
2023-03-19T13:51:12.869Z,99288.19
2023-03-19T13:56:26.273Z,99283.09
2023-03-19T14:01:26.313Z,99270.69
2023-03-19T14:06:40.325Z,99268.22
2023-03-19T14:11:35.999Z,99263.00
2023-03-19T14:16:37.091Z,99234.50
2023-03-19T14:21:55.980Z,99234.38
2023-03-19T14:26:47.687Z,99231.97
2023-03-19T14:31:39.363Z,99222.28
2023-03-19T14:36:31.666Z,99224.50
2023-03-19T14:41:27.657Z,99223.03
2023-03-19T14:46:34.893Z,99232.09
2023-03-19T14:51:51.109Z,99218.97
2023-03-19T14:56:43.933Z,99227.25
2023-03-19T15:01:41.523Z,99254.94
2023-03-19T15:06:41.948Z,99247.47
2023-03-19T15:11:48.903Z,99252.34
2023-03-19T15:16:49.535Z,99249.25
2023-03-19T15:21:41.155Z,99255.66
2023-03-19T15:26:37.983Z,99250.72
2023-03-19T15:31:53.913Z,99248.00
2023-03-19T15:37:15.434Z,99251.69
2023-03-19T15:42:07.235Z,99257.34
2023-03-19T15:47:02.356Z,99260.22
2023-03-19T15:51:59.643Z,99274.19
2023-03-19T15:56:52.388Z,99259.56
2023-03-19T16:01:44.215Z,99267.56
2023-03-19T16:06:40.127Z,99260.00
2023-03-19T16:11:37.769Z,99257.75
2023-03-19T16:16:32.863Z,99256.34
2023-03-19T16:21:36.512Z,99257.28
2023-03-19T16:26:48.776Z,99260.34
2023-03-19T16:31:46.189Z,99261.66
2023-03-19T16:36:37.835Z,99266.13
2023-03-19T16:41:33.892Z,99281.41
2023-03-19T16:46:26.222Z,99277.81
2023-03-19T16:51:21.203Z,99284.28
2023-03-19T16:56:15.213Z,99278.44
2023-03-19T17:01:17.264Z,99292.66
2023-03-19T17:06:13.445Z,99290.22
2023-03-19T17:11:06.193Z,99282.25
2023-03-19T17:16:02.829Z,99284.03
2023-03-19T17:21:02.224Z,99279.59
2023-03-19T17:25:54.579Z,99288.91
2023-03-19T17:30:47.216Z,99292.75
2023-03-19T17:35:39.048Z,99293.63
2023-03-19T17:40:30.839Z,99284.34
2023-03-19T17:45:29.886Z,99277.13
2023-03-19T17:50:24.556Z,99287.63
2023-03-19T17:55:19.648Z,99290.38
2023-03-19T18:00:12.457Z,99289.44
2023-03-19T18:05:04.557Z,99291.78
2023-03-19T18:09:56.257Z,99295.16
2023-03-19T18:14:47.840Z,99299.38
2023-03-19T18:19:39.524Z,99297.34
2023-03-19T18:24:31.140Z,99296.56
2023-03-19T18:29:22.957Z,99285.56
2023-03-19T18:34:16.661Z,99287.50
2023-03-19T18:39:16.312Z,99285.03
2023-03-19T18:44:08.792Z,99289.22
2023-03-19T18:49:03.536Z,99295.28
2023-03-19T18:53:56.205Z,99307.16
2023-03-19T18:58:48.916Z,99319.88
2023-03-19T19:03:40.616Z,99316.31
2023-03-19T19:08:32.248Z,99318.19
2023-03-19T19:13:30.310Z,99300.53
2023-03-19T19:18:23.088Z,99307.41
2023-03-19T19:23:15.801Z,99316.56
2023-03-19T19:28:20.620Z,99296.19
2023-03-19T19:33:17.100Z,99265.66
2023-03-19T19:38:08.761Z,99282.50
2023-03-19T19:43:00.515Z,99269.00
2023-03-19T19:47:52.241Z,99255.91
2023-03-19T19:52:44.016Z,99287.69
2023-03-19T19:57:35.844Z,99317.19
2023-03-19T20:02:29.844Z,99325.50
2023-03-19T20:07:22.008Z,99300.81
2023-03-19T20:12:18.142Z,99315.16
2023-03-19T20:17:15.504Z,99308.31
2023-03-19T20:22:07.261Z,99314.16
2023-03-19T20:27:00.947Z,99312.28
2023-03-19T20:31:52.715Z,99324.34
2023-03-19T20:36:44.394Z,99297.75
2023-03-19T20:41:36.077Z,99287.19
2023-03-19T20:46:28.216Z,99285.72
2023-03-19T20:51:24.828Z,99272.47
2023-03-19T20:56:18.724Z,99278.28
2023-03-19T21:01:11.711Z,99279.09
2023-03-19T21:06:13.322Z,99292.41
2023-03-19T21:11:05.533Z,99283.06
2023-03-19T21:15:57.424Z,99261.91
2023-03-19T21:20:56.999Z,99252.56
2023-03-19T21:25:49.314Z,99249.25
2023-03-19T21:30:43.050Z,99263.78
2023-03-19T21:35:34.996Z,99256.06
2023-03-19T21:40:30.626Z,99254.63
2023-03-19T21:45:35.663Z,99249.63
2023-03-19T21:50:27.423Z,99255.63
2023-03-19T21:55:19.167Z,99250.03
2023-03-19T22:00:14.012Z,99251.28
2023-03-19T22:05:21.021Z,99243.59
2023-03-19T22:10:12.895Z,99244.41
2023-03-19T22:15:07.226Z,99245.06
2023-03-19T22:19:58.858Z,99234.03
2023-03-19T22:24:50.702Z,99222.44
2023-03-19T22:29:43.006Z,99216.81
2023-03-19T22:34:34.699Z,99209.34
2023-03-19T22:39:26.300Z,99215.53
2023-03-19T22:44:26.281Z,99201.88
2023-03-19T22:49:19.028Z,99196.47
2023-03-19T22:54:13.761Z,99204.75
2023-03-19T22:59:05.600Z,99206.41
2023-03-19T23:03:57.564Z,99211.78
2023-03-19T23:08:50.782Z,99198.28
2023-03-19T23:13:42.490Z,99186.25
2023-03-19T23:18:36.736Z,99193.13
2023-03-19T23:23:29.541Z,99189.78
2023-03-19T23:28:29.309Z,99192.25
2023-03-19T23:33:22.523Z,99184.38
2023-03-19T23:38:15.237Z,99181.91
2023-03-19T23:43:15.104Z,99186.66
2023-03-19T23:48:13.247Z,99179.66
2023-03-19T23:53:04.778Z,99178.59
2023-03-19T23:57:58.205Z,99173.63
